sensor_id;sensor_type;location;lat;lon;timestamp;temperature;humidity
22742;DHT22;11538;48.884;8.696;2023-05-29T00:00:53;15.20;99.90
22742;DHT22;11538;48.884;8.696;2023-05-29T00:03:20;15.10;99.90
22742;DHT22;11538;48.884;8.696;2023-05-29T00:05:47;15.10;99.90
22742;DHT22;11538;48.884;8.696;2023-05-29T00:08:16;15.00;99.90
22742;DHT22;11538;48.884;8.696;2023-05-29T00:10:43;15.00;99.90
22742;DHT22;11538;48.884;8.696;2023-05-29T00:13:10;14.90;99.90
22742;DHT22;11538;48.884;8.696;2023-05-29T00:15:36;14.90;99.90
22742;DHT22;11538;48.884;8.696;2023-05-29T00:18:04;14.80;99.90
22742;DHT22;11538;48.884;8.696;2023-05-29T00:20:31;14.70;99.90
22742;DHT22;11538;48.884;8.696;2023-05-29T00:23:01;14.70;99.90
22742;DHT22;11538;48.884;8.696;2023-05-29T00:25:32;14.70;99.90
22742;DHT22;11538;48.884;8.696;2023-05-29T00:27:59;14.70;99.90
22742;DHT22;11538;48.884;8.696;2023-05-29T00:30:26;14.70;99.90
22742;DHT22;11538;48.884;8.696;2023-05-29T00:32:53;14.70;99.90
22742;DHT22;11538;48.884;8.696;2023-05-29T00:35:21;14.60;99.90
22742;DHT22;11538;48.884;8.696;2023-05-29T00:37:48;14.60;99.90
22742;DHT22;11538;48.884;8.696;2023-05-29T00:40:15;14.60;99.90
22742;DHT22;11538;48.884;8.696;2023-05-29T00:42:42;14.50;99.90
22742;DHT22;11538;48.884;8.696;2023-05-29T00:45:10;14.50;99.90
22742;DHT22;11538;48.884;8.696;2023-05-29T00:47:38;14.50;99.90
22742;DHT22;11538;48.884;8.696;2023-05-29T00:50:08;14.40;99.90
22742;DHT22;11538;48.884;8.696;2023-05-29T00:52:37;14.30;99.90
22742;DHT22;11538;48.884;8.696;2023-05-29T00:55:08;14.30;99.90
22742;DHT22;11538;48.884;8.696;2023-05-29T00:57:36;14.30;99.90
22742;DHT22;11538;48.884;8.696;2023-05-29T01:00:06;14.30;99.90
22742;DHT22;11538;48.884;8.696;2023-05-29T01:02:41;14.30;99.90
22742;DHT22;11538;48.884;8.696;2023-05-29T01:05:12;14.20;99.90
22742;DHT22;11538;48.884;8.696;2023-05-29T01:07:42;14.20;99.90
22742;DHT22;11538;48.884;8.696;2023-05-29T01:10:11;14.20;99.90
22742;DHT22;11538;48.884;8.696;2023-05-29T01:12:47;14.10;99.90
22742;DHT22;11538;48.884;8.696;2023-05-29T01:15:24;14.00;99.90
22742;DHT22;11538;48.884;8.696;2023-05-29T01:24:31;14.10;99.90
22742;DHT22;11538;48.884;8.696;2023-05-29T01:27:07;14.10;99.90
22742;DHT22;11538;48.884;8.696;2023-05-29T01:29:39;14.10;99.90
22742;DHT22;11538;48.884;8.696;2023-05-29T01:32:10;14.10;99.90
22742;DHT22;11538;48.884;8.696;2023-05-29T01:34:37;14.10;99.90
22742;DHT22;11538;48.884;8.696;2023-05-29T01:37:04;14.00;99.90
22742;DHT22;11538;48.884;8.696;2023-05-29T01:39:32;14.00;99.90
22742;DHT22;11538;48.884;8.696;2023-05-29T01:42:00;13.90;99.90
22742;DHT22;11538;48.884;8.696;2023-05-29T01:44:29;13.90;99.90
22742;DHT22;11538;48.884;8.696;2023-05-29T01:46:58;14.00;99.90
22742;DHT22;11538;48.884;8.696;2023-05-29T01:49:26;14.00;99.90
22742;DHT22;11538;48.884;8.696;2023-05-29T01:51:54;14.00;99.90
22742;DHT22;11538;48.884;8.696;2023-05-29T01:54:21;14.00;99.90
22742;DHT22;11538;48.884;8.696;2023-05-29T01:56:49;14.00;99.90
22742;DHT22;11538;48.884;8.696;2023-05-29T01:59:17;14.00;99.90
22742;DHT22;11538;48.884;8.696;2023-05-29T02:01:47;14.00;99.90
22742;DHT22;11538;48.884;8.696;2023-05-29T02:04:14;13.90;99.90
22742;DHT22;11538;48.884;8.696;2023-05-29T02:06:42;13.90;99.90
22742;DHT22;11538;48.884;8.696;2023-05-29T02:09:09;13.90;99.90
22742;DHT22;11538;48.884;8.696;2023-05-29T02:11:36;13.80;99.90
22742;DHT22;11538;48.884;8.696;2023-05-29T02:14:03;13.70;99.90
22742;DHT22;11538;48.884;8.696;2023-05-29T02:16:30;13.70;99.90
22742;DHT22;11538;48.884;8.696;2023-05-29T02:19:01;13.60;99.90
22742;DHT22;11538;48.884;8.696;2023-05-29T02:21:28;13.60;99.90
22742;DHT22;11538;48.884;8.696;2023-05-29T02:23:55;13.60;99.90
22742;DHT22;11538;48.884;8.696;2023-05-29T02:26:24;13.60;99.90
22742;DHT22;11538;48.884;8.696;2023-05-29T02:28:52;13.70;99.90
22742;DHT22;11538;48.884;8.696;2023-05-29T02:31:19;13.70;99.90
22742;DHT22;11538;48.884;8.696;2023-05-29T02:33:46;13.70;99.90
22742;DHT22;11538;48.884;8.696;2023-05-29T02:36:13;13.70;99.90
22742;DHT22;11538;48.884;8.696;2023-05-29T02:38:40;13.60;99.90
22742;DHT22;11538;48.884;8.696;2023-05-29T02:41:09;13.50;99.90
22742;DHT22;11538;48.884;8.696;2023-05-29T02:43:36;13.50;99.90
22742;DHT22;11538;48.884;8.696;2023-05-29T02:46:03;13.50;99.90
22742;DHT22;11538;48.884;8.696;2023-05-29T02:48:31;13.40;99.90
22742;DHT22;11538;48.884;8.696;2023-05-29T02:50:58;13.40;99.90
22742;DHT22;11538;48.884;8.696;2023-05-29T02:53:25;13.50;99.90
22742;DHT22;11538;48.884;8.696;2023-05-29T02:55:52;13.50;99.90
22742;DHT22;11538;48.884;8.696;2023-05-29T02:58:19;13.40;99.90
22742;DHT22;11538;48.884;8.696;2023-05-29T03:00:47;13.40;99.90
22742;DHT22;11538;48.884;8.696;2023-05-29T03:03:14;13.40;99.90
22742;DHT22;11538;48.884;8.696;2023-05-29T03:05:41;13.40;99.90
22742;DHT22;11538;48.884;8.696;2023-05-29T03:08:08;13.40;99.90
22742;DHT22;11538;48.884;8.696;2023-05-29T03:10:35;13.40;99.90
22742;DHT22;11538;48.884;8.696;2023-05-29T03:13:02;13.40;99.90
22742;DHT22;11538;48.884;8.696;2023-05-29T03:15:30;13.40;99.90
22742;DHT22;11538;48.884;8.696;2023-05-29T03:17:56;13.40;99.90
22742;DHT22;11538;48.884;8.696;2023-05-29T03:20:23;13.30;99.90
22742;DHT22;11538;48.884;8.696;2023-05-29T03:22:50;13.30;99.90
22742;DHT22;11538;48.884;8.696;2023-05-29T03:25:18;13.30;99.90
22742;DHT22;11538;48.884;8.696;2023-05-29T03:27:47;13.40;99.90
22742;DHT22;11538;48.884;8.696;2023-05-29T03:30:14;13.40;99.90
22742;DHT22;11538;48.884;8.696;2023-05-29T03:32:40;13.30;99.90
22742;DHT22;11538;48.884;8.696;2023-05-29T03:35:08;13.30;99.90
22742;DHT22;11538;48.884;8.696;2023-05-29T03:37:35;13.30;99.90
22742;DHT22;11538;48.884;8.696;2023-05-29T03:40:02;13.20;99.90
22742;DHT22;11538;48.884;8.696;2023-05-29T03:42:30;13.10;99.90
22742;DHT22;11538;48.884;8.696;2023-05-29T03:45:00;13.10;99.90
22742;DHT22;11538;48.884;8.696;2023-05-29T03:47:27;13.10;99.90
22742;DHT22;11538;48.884;8.696;2023-05-29T03:49:54;13.10;99.90
22742;DHT22;11538;48.884;8.696;2023-05-29T03:52:21;13.10;99.90
22742;DHT22;11538;48.884;8.696;2023-05-29T03:54:48;13.10;99.90
22742;DHT22;11538;48.884;8.696;2023-05-29T03:57:15;13.20;99.90
22742;DHT22;11538;48.884;8.696;2023-05-29T03:59:43;13.30;99.90
22742;DHT22;11538;48.884;8.696;2023-05-29T04:02:12;13.30;99.90
22742;DHT22;11538;48.884;8.696;2023-05-29T04:04:40;13.20;99.90
22742;DHT22;11538;48.884;8.696;2023-05-29T04:07:07;13.10;99.90
22742;DHT22;11538;48.884;8.696;2023-05-29T04:09:34;13.20;99.90
22742;DHT22;11538;48.884;8.696;2023-05-29T04:12:01;13.20;99.90
22742;DHT22;11538;48.884;8.696;2023-05-29T04:14:29;13.20;99.90
22742;DHT22;11538;48.884;8.696;2023-05-29T04:16:56;13.20;99.90
22742;DHT22;11538;48.884;8.696;2023-05-29T04:19:23;13.20;99.90
22742;DHT22;11538;48.884;8.696;2023-05-29T04:21:49;13.20;99.90
22742;DHT22;11538;48.884;8.696;2023-05-29T04:24:17;13.10;99.90
22742;DHT22;11538;48.884;8.696;2023-05-29T04:26:43;13.00;99.90
22742;DHT22;11538;48.884;8.696;2023-05-29T04:29:11;13.00;99.90
22742;DHT22;11538;48.884;8.696;2023-05-29T04:31:39;13.00;99.90
22742;DHT22;11538;48.884;8.696;2023-05-29T04:34:06;13.10;99.90
22742;DHT22;11538;48.884;8.696;2023-05-29T04:36:34;13.00;99.90
22742;DHT22;11538;48.884;8.696;2023-05-29T04:39:05;13.10;99.90
22742;DHT22;11538;48.884;8.696;2023-05-29T04:41:34;13.10;99.90
22742;DHT22;11538;48.884;8.696;2023-05-29T04:44:04;13.10;99.90
22742;DHT22;11538;48.884;8.696;2023-05-29T04:46:31;13.10;99.90
22742;DHT22;11538;48.884;8.696;2023-05-29T04:48:58;13.10;99.90
22742;DHT22;11538;48.884;8.696;2023-05-29T04:51:25;13.10;99.90
22742;DHT22;11538;48.884;8.696;2023-05-29T04:53:55;13.20;99.90
22742;DHT22;11538;48.884;8.696;2023-05-29T04:56:22;13.20;99.90
22742;DHT22;11538;48.884;8.696;2023-05-29T04:58:49;13.20;99.90
22742;DHT22;11538;48.884;8.696;2023-05-29T05:01:16;13.20;99.90
22742;DHT22;11538;48.884;8.696;2023-05-29T05:03:46;13.10;99.90
22742;DHT22;11538;48.884;8.696;2023-05-29T05:06:14;13.10;99.90
22742;DHT22;11538;48.884;8.696;2023-05-29T05:08:46;13.20;99.90
22742;DHT22;11538;48.884;8.696;2023-05-29T05:11:13;13.20;99.90
22742;DHT22;11538;48.884;8.696;2023-05-29T05:13:40;13.20;99.90
22742;DHT22;11538;48.884;8.696;2023-05-29T05:16:10;13.20;99.90
22742;DHT22;11538;48.884;8.696;2023-05-29T05:18:39;13.20;99.90
22742;DHT22;11538;48.884;8.696;2023-05-29T05:21:05;13.20;99.90
22742;DHT22;11538;48.884;8.696;2023-05-29T05:23:36;13.30;99.90
22742;DHT22;11538;48.884;8.696;2023-05-29T05:26:23;13.30;99.90
22742;DHT22;11538;48.884;8.696;2023-05-29T05:28:50;13.40;99.90
22742;DHT22;11538;48.884;8.696;2023-05-29T05:31:17;13.50;99.90
22742;DHT22;11538;48.884;8.696;2023-05-29T05:33:44;13.50;99.90
22742;DHT22;11538;48.884;8.696;2023-05-29T05:36:11;13.60;99.90
22742;DHT22;11538;48.884;8.696;2023-05-29T05:38:38;13.70;99.90
22742;DHT22;11538;48.884;8.696;2023-05-29T05:41:05;13.70;99.90
22742;DHT22;11538;48.884;8.696;2023-05-29T05:43:32;13.80;99.90
22742;DHT22;11538;48.884;8.696;2023-05-29T05:45:59;13.80;99.90
22742;DHT22;11538;48.884;8.696;2023-05-29T05:48:26;13.90;99.90
22742;DHT22;11538;48.884;8.696;2023-05-29T05:50:53;14.00;99.90
22742;DHT22;11538;48.884;8.696;2023-05-29T05:53:20;14.00;99.90
22742;DHT22;11538;48.884;8.696;2023-05-29T05:55:47;14.10;99.90
22742;DHT22;11538;48.884;8.696;2023-05-29T05:58:17;14.20;99.90
22742;DHT22;11538;48.884;8.696;2023-05-29T06:00:44;14.20;99.90
22742;DHT22;11538;48.884;8.696;2023-05-29T06:03:11;14.30;99.90
22742;DHT22;11538;48.884;8.696;2023-05-29T06:05:38;14.40;99.90
22742;DHT22;11538;48.884;8.696;2023-05-29T06:08:07;14.50;99.90
22742;DHT22;11538;48.884;8.696;2023-05-29T06:10:35;14.60;99.90
22742;DHT22;11538;48.884;8.696;2023-05-29T06:13:02;14.70;99.90
22742;DHT22;11538;48.884;8.696;2023-05-29T06:15:29;14.80;99.90
22742;DHT22;11538;48.884;8.696;2023-05-29T06:17:57;14.90;99.90
22742;DHT22;11538;48.884;8.696;2023-05-29T06:20:24;15.00;99.90
22742;DHT22;11538;48.884;8.696;2023-05-29T06:22:51;15.10;99.90
22742;DHT22;11538;48.884;8.696;2023-05-29T06:25:19;15.20;99.90
22742;DHT22;11538;48.884;8.696;2023-05-29T06:27:46;15.30;99.90
22742;DHT22;11538;48.884;8.696;2023-05-29T06:30:14;15.40;99.90
22742;DHT22;11538;48.884;8.696;2023-05-29T06:32:41;15.50;99.90
22742;DHT22;11538;48.884;8.696;2023-05-29T06:35:09;15.60;99.90
22742;DHT22;11538;48.884;8.696;2023-05-29T06:37:38;15.70;99.90
22742;DHT22;11538;48.884;8.696;2023-05-29T06:40:06;15.80;99.90
22742;DHT22;11538;48.884;8.696;2023-05-29T06:42:33;15.90;99.90
22742;DHT22;11538;48.884;8.696;2023-05-29T06:45:00;16.00;99.90
22742;DHT22;11538;48.884;8.696;2023-05-29T06:47:27;16.10;99.90
22742;DHT22;11538;48.884;8.696;2023-05-29T06:49:54;16.20;99.90
22742;DHT22;11538;48.884;8.696;2023-05-29T06:52:20;16.40;99.90
22742;DHT22;11538;48.884;8.696;2023-05-29T06:54:47;16.50;99.90
22742;DHT22;11538;48.884;8.696;2023-05-29T06:57:14;16.60;99.90
22742;DHT22;11538;48.884;8.696;2023-05-29T06:59:41;16.80;99.90
22742;DHT22;11538;48.884;8.696;2023-05-29T07:02:08;16.90;99.90
22742;DHT22;11538;48.884;8.696;2023-05-29T07:04:35;17.10;99.90
22742;DHT22;11538;48.884;8.696;2023-05-29T07:07:02;17.20;99.90
22742;DHT22;11538;48.884;8.696;2023-05-29T07:09:29;17.30;99.90
22742;DHT22;11538;48.884;8.696;2023-05-29T07:11:56;17.50;99.90
22742;DHT22;11538;48.884;8.696;2023-05-29T07:14:23;17.70;99.90
22742;DHT22;11538;48.884;8.696;2023-05-29T07:16:50;17.80;99.90
22742;DHT22;11538;48.884;8.696;2023-05-29T07:19:18;17.90;99.90
22742;DHT22;11538;48.884;8.696;2023-05-29T07:21:48;18.10;99.90
22742;DHT22;11538;48.884;8.696;2023-05-29T07:24:15;18.20;99.90
22742;DHT22;11538;48.884;8.696;2023-05-29T07:26:42;18.30;99.90
22742;DHT22;11538;48.884;8.696;2023-05-29T07:29:13;18.50;99.90
22742;DHT22;11538;48.884;8.696;2023-05-29T07:31:41;18.60;99.90
22742;DHT22;11538;48.884;8.696;2023-05-29T07:34:09;18.80;99.90
22742;DHT22;11538;48.884;8.696;2023-05-29T07:36:36;18.90;99.90
22742;DHT22;11538;48.884;8.696;2023-05-29T07:39:03;19.00;99.90
22742;DHT22;11538;48.884;8.696;2023-05-29T07:41:32;19.20;99.90
22742;DHT22;11538;48.884;8.696;2023-05-29T07:43:59;19.30;99.90
22742;DHT22;11538;48.884;8.696;2023-05-29T07:46:26;19.40;99.90
22742;DHT22;11538;48.884;8.696;2023-05-29T07:48:53;19.60;99.90
22742;DHT22;11538;48.884;8.696;2023-05-29T07:51:19;19.70;99.90
22742;DHT22;11538;48.884;8.696;2023-05-29T07:53:46;19.80;99.90
22742;DHT22;11538;48.884;8.696;2023-05-29T07:56:13;20.00;99.90
22742;DHT22;11538;48.884;8.696;2023-05-29T07:58:40;20.10;99.90
22742;DHT22;11538;48.884;8.696;2023-05-29T08:01:08;20.30;99.90
22742;DHT22;11538;48.884;8.696;2023-05-29T08:03:35;20.40;99.90
22742;DHT22;11538;48.884;8.696;2023-05-29T08:06:02;20.50;99.90
22742;DHT22;11538;48.884;8.696;2023-05-29T08:08:29;20.70;99.90
22742;DHT22;11538;48.884;8.696;2023-05-29T08:10:56;20.90;99.90
22742;DHT22;11538;48.884;8.696;2023-05-29T08:13:24;21.00;99.90
22742;DHT22;11538;48.884;8.696;2023-05-29T08:15:51;21.20;99.90
22742;DHT22;11538;48.884;8.696;2023-05-29T08:18:18;21.40;99.90
22742;DHT22;11538;48.884;8.696;2023-05-29T08:20:45;21.60;99.90
22742;DHT22;11538;48.884;8.696;2023-05-29T08:23:18;21.70;99.90
22742;DHT22;11538;48.884;8.696;2023-05-29T08:25:45;21.90;99.90
22742;DHT22;11538;48.884;8.696;2023-05-29T08:28:12;22.00;99.90
22742;DHT22;11538;48.884;8.696;2023-05-29T08:30:39;22.20;99.90
22742;DHT22;11538;48.884;8.696;2023-05-29T08:33:06;22.40;99.90
22742;DHT22;11538;48.884;8.696;2023-05-29T08:35:34;22.50;99.90
22742;DHT22;11538;48.884;8.696;2023-05-29T08:38:00;22.70;99.90
22742;DHT22;11538;48.884;8.696;2023-05-29T08:40:27;22.80;99.90
22742;DHT22;11538;48.884;8.696;2023-05-29T08:43:01;22.90;99.90
22742;DHT22;11538;48.884;8.696;2023-05-29T08:45:34;23.10;99.90
22742;DHT22;11538;48.884;8.696;2023-05-29T08:48:10;23.20;99.90
22742;DHT22;11538;48.884;8.696;2023-05-29T08:50:43;23.30;99.90
22742;DHT22;11538;48.884;8.696;2023-05-29T08:53:16;23.40;99.90
22742;DHT22;11538;48.884;8.696;2023-05-29T08:55:46;23.40;99.90
22742;DHT22;11538;48.884;8.696;2023-05-29T08:58:14;23.60;99.90
22742;DHT22;11538;48.884;8.696;2023-05-29T09:00:40;23.70;99.90
22742;DHT22;11538;48.884;8.696;2023-05-29T09:03:08;23.90;99.90
22742;DHT22;11538;48.884;8.696;2023-05-29T09:05:38;24.10;99.90
22742;DHT22;11538;48.884;8.696;2023-05-29T09:08:08;24.10;99.90
22742;DHT22;11538;48.884;8.696;2023-05-29T09:10:42;24.30;99.90
22742;DHT22;11538;48.884;8.696;2023-05-29T09:13:10;24.40;99.90
22742;DHT22;11538;48.884;8.696;2023-05-29T09:15:38;24.50;99.90
22742;DHT22;11538;48.884;8.696;2023-05-29T09:18:10;24.60;99.90
22742;DHT22;11538;48.884;8.696;2023-05-29T09:20:40;24.70;99.90
22742;DHT22;11538;48.884;8.696;2023-05-29T09:23:08;24.80;99.90
22742;DHT22;11538;48.884;8.696;2023-05-29T09:25:40;25.00;99.90
22742;DHT22;11538;48.884;8.696;2023-05-29T09:28:11;25.10;99.90
22742;DHT22;11538;48.884;8.696;2023-05-29T09:30:44;25.20;99.90
22742;DHT22;11538;48.884;8.696;2023-05-29T09:33:14;25.40;99.90
22742;DHT22;11538;48.884;8.696;2023-05-29T09:35:47;25.50;99.90
22742;DHT22;11538;48.884;8.696;2023-05-29T09:38:16;25.60;99.90
22742;DHT22;11538;48.884;8.696;2023-05-29T09:40:47;25.80;99.90
22742;DHT22;11538;48.884;8.696;2023-05-29T09:43:15;25.80;99.90
22742;DHT22;11538;48.884;8.696;2023-05-29T09:45:45;26.00;99.90
22742;DHT22;11538;48.884;8.696;2023-05-29T09:48:15;26.20;99.90
22742;DHT22;11538;48.884;8.696;2023-05-29T09:50:44;26.20;99.90
22742;DHT22;11538;48.884;8.696;2023-05-29T09:53:18;26.40;99.90
22742;DHT22;11538;48.884;8.696;2023-05-29T09:55:49;26.50;99.90
22742;DHT22;11538;48.884;8.696;2023-05-29T09:58:22;26.60;99.90
22742;DHT22;11538;48.884;8.696;2023-05-29T10:00:50;26.80;99.90
22742;DHT22;11538;48.884;8.696;2023-05-29T10:03:19;26.90;99.90
22742;DHT22;11538;48.884;8.696;2023-05-29T10:05:54;26.90;99.90
22742;DHT22;11538;48.884;8.696;2023-05-29T10:08:25;27.10;99.90
22742;DHT22;11538;48.884;8.696;2023-05-29T10:11:01;27.20;99.90
22742;DHT22;11538;48.884;8.696;2023-05-29T10:13:36;27.40;99.90
22742;DHT22;11538;48.884;8.696;2023-05-29T10:16:10;27.40;99.90
22742;DHT22;11538;48.884;8.696;2023-05-29T10:18:44;27.60;99.90
22742;DHT22;11538;48.884;8.696;2023-05-29T10:21:17;27.70;99.90
22742;DHT22;11538;48.884;8.696;2023-05-29T10:23:47;27.80;99.90
22742;DHT22;11538;48.884;8.696;2023-05-29T10:26:21;27.90;99.90
22742;DHT22;11538;48.884;8.696;2023-05-29T10:37:59;28.50;99.90
22742;DHT22;11538;48.884;8.696;2023-05-29T10:40:36;28.70;99.90
22742;DHT22;11538;48.884;8.696;2023-05-29T10:43:03;28.80;99.90
22742;DHT22;11538;48.884;8.696;2023-05-29T10:50:42;29.10;99.90
22742;DHT22;11538;48.884;8.696;2023-05-29T10:53:16;29.20;99.90
22742;DHT22;11538;48.884;8.696;2023-05-29T10:55:45;29.30;99.90
22742;DHT22;11538;48.884;8.696;2023-05-29T11:00:54;29.50;99.90
22742;DHT22;11538;48.884;8.696;2023-05-29T11:03:31;29.60;99.90
22742;DHT22;11538;48.884;8.696;2023-05-29T11:06:21;29.80;99.90
22742;DHT22;11538;48.884;8.696;2023-05-29T11:08:54;29.90;99.90
22742;DHT22;11538;48.884;8.696;2023-05-29T11:11:32;30.00;99.90
22742;DHT22;11538;48.884;8.696;2023-05-29T11:14:06;30.20;99.90
22742;DHT22;11538;48.884;8.696;2023-05-29T11:19:05;30.40;99.90
22742;DHT22;11538;48.884;8.696;2023-05-29T11:24:28;30.70;99.90
22742;DHT22;11538;48.884;8.696;2023-05-29T11:26:57;30.80;99.90
22742;DHT22;11538;48.884;8.696;2023-05-29T11:29:28;31.00;99.90
22742;DHT22;11538;48.884;8.696;2023-05-29T11:32:02;31.20;99.90
22742;DHT22;11538;48.884;8.696;2023-05-29T11:34:31;31.50;99.90
22742;DHT22;11538;48.884;8.696;2023-05-29T11:37:00;31.70;99.90
22742;DHT22;11538;48.884;8.696;2023-05-29T11:39:29;32.00;99.90
22742;DHT22;11538;48.884;8.696;2023-05-29T11:41:58;32.30;99.90
22742;DHT22;11538;48.884;8.696;2023-05-29T11:44:26;32.50;99.90
22742;DHT22;11538;48.884;8.696;2023-05-29T11:47:07;32.70;99.90
22742;DHT22;11538;48.884;8.696;2023-05-29T11:49:35;33.00;99.90
22742;DHT22;11538;48.884;8.696;2023-05-29T11:52:10;33.10;99.90
22742;DHT22;11538;48.884;8.696;2023-05-29T11:54:43;33.30;99.90
22742;DHT22;11538;48.884;8.696;2023-05-29T11:57:22;33.40;99.90
22742;DHT22;11538;48.884;8.696;2023-05-29T11:59:50;33.50;99.90
22742;DHT22;11538;48.884;8.696;2023-05-29T12:02:19;33.70;99.90
22742;DHT22;11538;48.884;8.696;2023-05-29T12:05:03;33.80;99.90
22742;DHT22;11538;48.884;8.696;2023-05-29T12:07:34;34.00;99.90
22742;DHT22;11538;48.884;8.696;2023-05-29T12:10:15;34.20;99.90
22742;DHT22;11538;48.884;8.696;2023-05-29T12:12:51;34.50;99.90
22742;DHT22;11538;48.884;8.696;2023-05-29T12:15:19;34.70;99.90
22742;DHT22;11538;48.884;8.696;2023-05-29T12:17:52;34.80;99.90
22742;DHT22;11538;48.884;8.696;2023-05-29T12:20:23;34.90;99.90
22742;DHT22;11538;48.884;8.696;2023-05-29T12:22:59;35.00;99.90
22742;DHT22;11538;48.884;8.696;2023-05-29T12:25:28;35.00;99.90
22742;DHT22;11538;48.884;8.696;2023-05-29T12:27:56;35.10;99.90
22742;DHT22;11538;48.884;8.696;2023-05-29T12:30:24;35.20;99.90
22742;DHT22;11538;48.884;8.696;2023-05-29T12:32:59;35.40;99.90
22742;DHT22;11538;48.884;8.696;2023-05-29T12:35:29;35.50;99.90
22742;DHT22;11538;48.884;8.696;2023-05-29T12:38:05;35.60;99.90
22742;DHT22;11538;48.884;8.696;2023-05-29T12:40:35;35.70;99.90
22742;DHT22;11538;48.884;8.696;2023-05-29T12:43:08;35.70;99.90
22742;DHT22;11538;48.884;8.696;2023-05-29T12:45:36;35.80;99.90
22742;DHT22;11538;48.884;8.696;2023-05-29T12:48:05;35.90;99.90
22742;DHT22;11538;48.884;8.696;2023-05-29T12:50:34;36.00;99.90
22742;DHT22;11538;48.884;8.696;2023-05-29T12:55:42;36.30;99.90
22742;DHT22;11538;48.884;8.696;2023-05-29T12:58:17;36.40;99.90
22742;DHT22;11538;48.884;8.696;2023-05-29T13:00:53;36.40;99.90
22742;DHT22;11538;48.884;8.696;2023-05-29T13:03:24;36.40;99.90
22742;DHT22;11538;48.884;8.696;2023-05-29T13:05:51;36.60;99.90
22742;DHT22;11538;48.884;8.696;2023-05-29T13:08:20;36.70;99.90
22742;DHT22;11538;48.884;8.696;2023-05-29T13:10:47;36.90;99.90
22742;DHT22;11538;48.884;8.696;2023-05-29T13:13:14;36.90;99.90
22742;DHT22;11538;48.884;8.696;2023-05-29T13:15:41;37.00;99.90
22742;DHT22;11538;48.884;8.696;2023-05-29T13:18:08;37.00;99.90
22742;DHT22;11538;48.884;8.696;2023-05-29T13:20:35;36.90;99.90
22742;DHT22;11538;48.884;8.696;2023-05-29T13:23:02;36.90;99.90
22742;DHT22;11538;48.884;8.696;2023-05-29T13:25:31;37.00;99.90
22742;DHT22;11538;48.884;8.696;2023-05-29T13:27:58;36.90;99.90
22742;DHT22;11538;48.884;8.696;2023-05-29T13:30:25;37.00;99.90
22742;DHT22;11538;48.884;8.696;2023-05-29T13:32:53;37.00;99.90
22742;DHT22;11538;48.884;8.696;2023-05-29T13:35:20;37.00;99.90
22742;DHT22;11538;48.884;8.696;2023-05-29T13:37:47;37.00;99.90
22742;DHT22;11538;48.884;8.696;2023-05-29T13:40:14;37.00;99.90
22742;DHT22;11538;48.884;8.696;2023-05-29T13:42:41;37.00;99.90
22742;DHT22;11538;48.884;8.696;2023-05-29T13:45:08;37.00;99.90
22742;DHT22;11538;48.884;8.696;2023-05-29T13:47:35;37.00;99.90
22742;DHT22;11538;48.884;8.696;2023-05-29T13:50:03;37.00;99.90
22742;DHT22;11538;48.884;8.696;2023-05-29T13:52:32;37.00;99.90
22742;DHT22;11538;48.884;8.696;2023-05-29T13:54:59;36.80;99.90
22742;DHT22;11538;48.884;8.696;2023-05-29T13:57:31;36.80;99.90
22742;DHT22;11538;48.884;8.696;2023-05-29T13:59:58;36.70;99.90
22742;DHT22;11538;48.884;8.696;2023-05-29T14:02:25;36.70;99.90
22742;DHT22;11538;48.884;8.696;2023-05-29T14:04:53;36.50;99.90
22742;DHT22;11538;48.884;8.696;2023-05-29T14:07:20;36.50;99.90
22742;DHT22;11538;48.884;8.696;2023-05-29T14:09:46;36.40;99.90
22742;DHT22;11538;48.884;8.696;2023-05-29T14:12:13;36.40;99.90
22742;DHT22;11538;48.884;8.696;2023-05-29T14:14:41;36.30;99.90
22742;DHT22;11538;48.884;8.696;2023-05-29T14:17:08;36.30;99.90
22742;DHT22;11538;48.884;8.696;2023-05-29T14:19:35;36.10;99.90
22742;DHT22;11538;48.884;8.696;2023-05-29T14:22:02;35.90;99.90
22742;DHT22;11538;48.884;8.696;2023-05-29T14:24:29;35.90;99.90
22742;DHT22;11538;48.884;8.696;2023-05-29T14:26:56;35.80;99.90
22742;DHT22;11538;48.884;8.696;2023-05-29T14:29:24;35.70;99.90
22742;DHT22;11538;48.884;8.696;2023-05-29T14:31:51;35.50;99.90
22742;DHT22;11538;48.884;8.696;2023-05-29T14:34:19;35.40;99.90
22742;DHT22;11538;48.884;8.696;2023-05-29T14:36:46;35.30;99.90
22742;DHT22;11538;48.884;8.696;2023-05-29T14:39:13;35.20;99.90
22742;DHT22;11538;48.884;8.696;2023-05-29T14:41:41;35.10;99.90
22742;DHT22;11538;48.884;8.696;2023-05-29T14:44:08;35.00;99.90
22742;DHT22;11538;48.884;8.696;2023-05-29T14:46:35;34.80;99.90
22742;DHT22;11538;48.884;8.696;2023-05-29T14:49:02;34.80;99.90
22742;DHT22;11538;48.884;8.696;2023-05-29T14:51:29;34.80;99.90
22742;DHT22;11538;48.884;8.696;2023-05-29T14:53:56;34.80;99.90
22742;DHT22;11538;48.884;8.696;2023-05-29T14:56:22;34.70;99.90
22742;DHT22;11538;48.884;8.696;2023-05-29T14:58:50;34.60;99.90
22742;DHT22;11538;48.884;8.696;2023-05-29T15:01:17;34.50;99.90
22742;DHT22;11538;48.884;8.696;2023-05-29T15:03:44;34.30;99.90
22742;DHT22;11538;48.884;8.696;2023-05-29T15:06:12;34.20;99.90
22742;DHT22;11538;48.884;8.696;2023-05-29T15:08:40;34.10;99.90
22742;DHT22;11538;48.884;8.696;2023-05-29T15:11:10;33.90;99.90
22742;DHT22;11538;48.884;8.696;2023-05-29T15:13:40;33.80;99.90
22742;DHT22;11538;48.884;8.696;2023-05-29T15:16:07;33.70;99.90
22742;DHT22;11538;48.884;8.696;2023-05-29T15:18:34;33.60;99.90
22742;DHT22;11538;48.884;8.696;2023-05-29T15:21:02;33.50;99.90
22742;DHT22;11538;48.884;8.696;2023-05-29T15:23:29;33.40;99.90
22742;DHT22;11538;48.884;8.696;2023-05-29T15:26:00;33.30;99.90
22742;DHT22;11538;48.884;8.696;2023-05-29T15:28:28;33.20;99.90
22742;DHT22;11538;48.884;8.696;2023-05-29T15:30:55;33.10;99.90
22742;DHT22;11538;48.884;8.696;2023-05-29T15:33:22;33.00;99.90
22742;DHT22;11538;48.884;8.696;2023-05-29T15:35:49;32.90;99.90
22742;DHT22;11538;48.884;8.696;2023-05-29T15:38:16;32.80;99.90
22742;DHT22;11538;48.884;8.696;2023-05-29T15:40:44;32.70;99.90
22742;DHT22;11538;48.884;8.696;2023-05-29T15:43:11;32.50;99.90
22742;DHT22;11538;48.884;8.696;2023-05-29T15:45:38;32.40;99.90
22742;DHT22;11538;48.884;8.696;2023-05-29T15:48:06;32.30;99.90
22742;DHT22;11538;48.884;8.696;2023-05-29T15:50:33;32.10;99.90
22742;DHT22;11538;48.884;8.696;2023-05-29T15:53:00;32.00;99.90
22742;DHT22;11538;48.884;8.696;2023-05-29T15:55:27;31.80;99.90
22742;DHT22;11538;48.884;8.696;2023-05-29T15:57:54;31.50;99.90
22742;DHT22;11538;48.884;8.696;2023-05-29T16:00:21;31.20;99.90
22742;DHT22;11538;48.884;8.696;2023-05-29T16:02:51;30.80;99.90
22742;DHT22;11538;48.884;8.696;2023-05-29T16:05:19;30.50;99.90
22742;DHT22;11538;48.884;8.696;2023-05-29T16:07:46;30.20;99.90
22742;DHT22;11538;48.884;8.696;2023-05-29T16:10:15;29.80;99.90